Time;durP1;ratioP1;P1;durP2;ratioP2;P2;SDS_P1;SDS_P2;PMS_P1;PMS_P2;Temp;Humidity;BMP_temperature;BMP_pressure;BME280_temperature;BME280_humidity;BME280_pressure;Samples;Min_cycle;Max_cycle;Signal;HPM_P1;HPM_P2
2021/01/13 00:01:28;;;;;;;53.42;50.45;;;1.60;99.90;;;;;;6214084;23;20487;-82
2021/01/13 00:03:55;;;;;;;48.37;44.87;;;1.80;99.90;;;;;;6225529;23;20161;-82
2021/01/13 00:06:22;;;;;;;47.15;44.47;;;1.80;99.90;;;;;;6215291;23;20407;-82
2021/01/13 00:08:51;;;;;;;47.37;43.30;;;1.90;99.90;;;;;;6225484;23;20157;-83
2021/01/13 00:11:28;;;;;;;45.70;42.33;;;1.90;99.90;;;;;;6215127;23;20423;-82
2021/01/13 00:13:57;;;;;;;42.03;39.33;;;1.80;99.90;;;;;;6215033;23;20435;-82
2021/01/13 00:16:26;;;;;;;42.17;39.25;;;1.80;99.90;;;;;;6224041;23;20778;-81
2021/01/13 00:18:54;;;;;;;43.10;39.30;;;1.80;99.90;;;;;;6215506;23;20160;-82
2021/01/13 00:21:23;;;;;;;40.37;37.33;;;1.90;99.90;;;;;;6215226;23;20712;-82
2021/01/13 00:23:50;;;;;;;42.03;38.50;;;1.80;99.90;;;;;;6215586;23;20724;-82
2021/01/13 00:26:25;;;;;;;41.57;38.17;;;1.90;99.90;;;;;;6228642;23;20404;-82
2021/01/13 00:28:52;;;;;;;35.70;33.40;;;2.00;99.90;;;;;;6225704;23;20404;-82
2021/01/13 00:31:38;;;;;;;34.73;31.30;;;1.90;99.90;;;;;;6224054;23;20432;-82
2021/01/13 00:34:10;;;;;;;36.87;34.20;;;2.00;99.90;;;;;;6136346;23;20478;-82
2021/01/13 00:37:05;;;;;;;33.60;31.20;;;1.90;99.90;;;;;;6224991;23;20416;-83
2021/01/13 00:39:33;;;;;;;35.67;32.90;;;1.90;99.90;;;;;;6074569;23;20427;-84
2021/01/13 00:42:16;;;;;;;37.63;35.10;;;2.00;99.90;;;;;;6088873;23;20440;-83
2021/01/13 00:45:07;;;;;;;;;;;;;;;;;;;;;
2021/01/13 00:47:46;;;;;;;;;;;;;;;;;;;;;
2021/01/13 00:50:33;;;;;;;36.53;33.93;;;1.90;99.90;;;;;;6216640;23;20176;-83
2021/01/13 00:53:14;;;;;;;41.57;37.73;;;1.80;99.90;;;;;;6217067;23;20436;-82
2021/01/13 00:55:54;;;;;;;;;;;;;;;;;;;;;
2021/01/13 00:58:30;;;;;;;39.83;35.97;;;1.70;99.90;;;;;;6227299;23;20396;-82
2021/01/13 01:01:25;;;;;;;33.80;30.30;;;1.80;99.90;;;;;;6227255;23;20421;-82
2021/01/13 01:04:06;;;;;;;;;;;;;;;;;;;;;
2021/01/13 01:07:05;;;;;;;34.57;25.70;;;1.90;99.90;;;;;;6216327;23;20498;-83
2021/01/13 01:12:33;;;;;;;27.73;25.53;;;1.80;99.90;;;;;;6153444;23;20976;-83
2021/01/13 01:15:32;;;;;;;;;;;;;;;;;;;;;
2021/01/13 01:19:04;;;;;;;;;;;;;;;;;;;;;
2021/01/13 01:22:37;;;;;;;;;;;;;;;;;;;;;
2021/01/13 01:25:38;;;;;;;25.60;22.90;;;1.70;99.90;;;;;;6001975;23;20408;-82
2021/01/13 01:34:00;;;;;;;19.97;17.63;;;1.80;99.90;;;;;;5897618;24;20531;-83
2021/01/13 01:40:19;;;;;;;25.63;15.03;;;1.80;99.90;;;;;;5948763;24;20472;-82
2021/01/13 01:43:07;;;;;;;33.80;14.73;;;2.00;99.90;;;;;;6105164;23;20462;-83
2021/01/13 01:48:56;;;;;;;18.77;11.60;;;2.00;99.90;;;;;;6113742;23;20410;-82
2021/01/13 01:55:11;;;;;;;18.03;13.30;;;2.10;99.90;;;;;;6046703;23;20497;-82
2021/01/13 01:58:24;;;;;;;15.87;11.63;;;2.10;99.90;;;;;;5925323;24;20445;-83
2021/01/13 02:00:58;;;;;;;20.73;12.40;;;2.30;99.90;;;;;;6024026;23;20431;-82
2021/01/13 02:03:35;;;;;;;20.53;12.37;;;2.20;99.90;;;;;;6139892;23;20507;-83
2021/01/13 02:06:23;;;;;;;16.40;11.60;;;2.30;99.90;;;;;;6216269;23;20411;-82
2021/01/13 02:08:55;;;;;;;20.20;11.93;;;2.10;99.90;;;;;;6216457;23;20428;-82
2021/01/13 02:11:26;;;;;;;23.17;13.53;;;2.00;99.90;;;;;;6216507;23;20397;-82
2021/01/13 02:14:13;;;;;;;22.97;14.50;;;2.00;99.90;;;;;;6226433;23;20840;-82
2021/01/13 02:16:45;;;;;;;27.50;13.57;;;2.00;99.90;;;;;;6215160;23;20402;-83
2021/01/13 02:19:42;;;;;;;25.40;15.77;;;1.90;99.90;;;;;;6216477;23;20401;-82
2021/01/13 02:22:13;;;;;;;20.33;18.07;;;1.80;99.90;;;;;;6216341;23;20404;-82
2021/01/13 02:25:50;;;;;;;21.80;18.17;;;1.80;99.90;;;;;;6216494;23;20404;-82
2021/01/13 02:32:19;;;;;;;;;;;;;;;;;;;;;
2021/01/13 02:35:16;;;;;;;30.07;26.73;;;1.80;99.90;;;;;;6218388;23;20471;-82
2021/01/13 02:38:12;;;;;;;32.80;29.47;;;1.80;99.90;;;;;;6211055;23;20419;-82
2021/01/13 02:43:52;;;;;;;28.83;26.33;;;1.90;99.90;;;;;;6213374;23;20416;-83
2021/01/13 02:46:43;;;;;;;33.07;29.50;;;2.00;99.90;;;;;;6214479;23;20158;-83
2021/01/13 02:49:32;;;;;;;33.23;30.60;;;2.00;99.90;;;;;;6215821;23;20431;-82
2021/01/13 02:52:26;;;;;;;35.30;32.20;;;2.10;99.90;;;;;;6224621;23;20447;-82
2021/01/13 02:55:05;;;;;;;;;;;;;;;;;;;;;
2021/01/13 02:57:38;;;;;;;32.50;29.10;;;2.10;99.90;;;;;;6215667;23;20408;-82
2021/01/13 03:00:42;;;;;;;;;;;;;;;;;;;;;
2021/01/13 03:03:15;;;;;;;35.77;30.80;;;2.10;99.90;;;;;;6182088;23;20404;-82
2021/01/13 03:06:10;;;;;;;38.58;35.50;;;2.00;99.90;;;;;;6215914;23;20397;-82
2021/01/13 03:09:05;;;;;;;43.70;39.80;;;2.10;99.90;;;;;;6215737;23;20185;-82
2021/01/13 03:11:42;;;;;;;43.30;39.57;;;1.90;99.90;;;;;;6225278;23;20483;-82
2021/01/13 03:14:19;;;;;;;41.60;38.30;;;2.00;99.90;;;;;;6215209;23;20451;-82
2021/01/13 03:16:59;;;;;;;45.63;41.70;;;2.00;99.90;;;;;;6214407;23;20400;-82
2021/01/13 03:20:01;;;;;;;38.70;35.90;;;2.10;99.90;;;;;;6215597;23;20401;-82
2021/01/13 03:22:50;;;;;;;41.10;37.37;;;2.10;99.90;;;;;;6225894;23;20400;-82
2021/01/13 03:25:26;;;;;;;38.40;35.10;;;2.10;99.90;;;;;;6225710;23;20409;-81
2021/01/13 03:27:55;;;;;;;39.05;35.65;;;2.20;99.90;;;;;;6225806;23;20275;-81
2021/01/13 03:30:28;;;;;;;38.17;34.37;;;2.10;99.90;;;;;;6215892;23;20154;-82
2021/01/13 03:33:28;;;;;;;39.07;35.07;;;2.10;99.90;;;;;;6214359;23;20440;-82
2021/01/13 03:35:58;;;;;;;34.67;31.47;;;2.10;99.90;;;;;;6217971;23;20485;-82
2021/01/13 03:38:29;;;;;;;34.63;32.13;;;2.20;99.90;;;;;;6215518;23;20404;-83
2021/01/13 03:41:04;;;;;;;33.23;30.50;;;2.30;99.90;;;;;;6215832;23;20401;-82
2021/01/13 03:43:48;;;;;;;;;;;;;;;;;;;;;
2021/01/13 03:46:16;;;;;;;36.87;28.97;;;2.30;99.90;;;;;;6221809;23;20408;-82
2021/01/13 03:48:47;;;;;;;35.58;31.77;;;2.30;99.90;;;;;;6225213;23;20404;-82
2021/01/13 03:51:49;;;;;;;32.27;29.53;;;2.20;99.90;;;;;;6225977;23;20157;-82
2021/01/13 03:54:18;;;;;;;35.00;31.53;;;2.30;99.90;;;;;;6225423;23;20428;-82
2021/01/13 03:57:03;;;;;;;32.90;28.90;;;2.30;99.90;;;;;;6215533;23;20933;-82
2021/01/13 03:59:55;;;;;;;34.30;30.23;;;2.30;99.90;;;;;;6215637;23;20396;-82
2021/01/13 04:02:28;;;;;;;31.87;28.77;;;2.30;99.90;;;;;;6214498;23;20404;-82
2021/01/13 04:05:21;;;;;;;36.70;30.40;;;2.30;99.90;;;;;;6226022;23;20400;-82
2021/01/13 04:07:51;;;;;;;38.10;34.30;;;2.30;99.90;;;;;;6215381;23;20403;-82
2021/01/13 04:10:18;;;;;;;34.57;31.43;;;2.30;99.90;;;;;;6225500;23;20910;-82
2021/01/13 04:12:56;;;;;;;39.43;33.03;;;2.20;99.90;;;;;;6215506;23;20438;-82
2021/01/13 04:15:37;;;;;;;41.72;33.60;;;2.30;99.90;;;;;;6215409;23;20447;-82
2021/01/13 04:18:10;;;;;;;40.63;37.17;;;2.20;99.90;;;;;;6214409;23;20207;-82
2021/01/13 04:20:40;;;;;;;43.73;38.30;;;2.20;99.90;;;;;;6225195;23;20215;-82
2021/01/13 04:23:07;;;;;;;41.53;38.20;;;2.10;99.90;;;;;;6226360;23;20411;-81
2021/01/13 04:25:36;;;;;;;39.83;36.37;;;2.10;99.90;;;;;;6217138;23;20403;-82
2021/01/13 04:28:03;;;;;;;40.70;37.10;;;2.10;99.90;;;;;;6217534;23;20396;-78
2021/01/13 04:30:31;;;;;;;38.30;35.30;;;2.10;99.90;;;;;;6217139;23;20401;-79
2021/01/13 04:32:59;;;;;;;38.33;35.20;;;2.20;99.90;;;;;;6215652;23;20463;-82
2021/01/13 04:35:27;;;;;;;34.60;31.07;;;2.20;99.90;;;;;;6227273;23;20868;-81
2021/01/13 04:37:57;;;;;;;36.30;32.83;;;2.20;99.90;;;;;;6227274;23;20404;-81
2021/01/13 04:40:44;;;;;;;40.37;33.80;;;2.20;99.90;;;;;;6217080;23;20154;-81
2021/01/13 04:43:19;;;;;;;36.77;33.60;;;2.30;99.90;;;;;;6227349;23;20403;-82
2021/01/13 04:45:48;;;;;;;34.33;31.53;;;2.30;99.90;;;;;;6227089;23;20449;-84
2021/01/13 04:48:20;;;;;;;31.90;28.90;;;2.50;99.90;;;;;;6226270;23;20729;-82
2021/01/13 04:50:50;;;;;;;30.80;25.83;;;2.50;99.90;;;;;;6227113;23;20408;-81
2021/01/13 04:53:22;;;;;;;37.10;29.30;;;2.60;99.90;;;;;;6226736;23;20506;-81
2021/01/13 04:55:54;;;;;;;32.70;25.37;;;2.60;99.90;;;;;;6216701;23;20432;-81
2021/01/13 04:59:00;;;;;;;29.77;26.70;;;2.50;99.90;;;;;;6227333;23;20442;-82
2021/01/13 05:02:05;;;;;;;33.87;30.37;;;2.40;99.90;;;;;;6226060;23;20401;-81
2021/01/13 05:04:58;;;;;;;34.60;30.77;;;2.60;99.90;;;;;;6227198;23;20404;-82
2021/01/13 05:07:37;;;;;;;29.50;26.57;;;2.50;99.90;;;;;;6203922;23;20412;-77
2021/01/13 05:10:18;;;;;;;40.87;28.43;;;2.60;99.90;;;;;;6217013;23;20446;-81
2021/01/13 05:12:54;;;;;;;33.20;29.50;;;2.60;99.90;;;;;;6227008;23;20951;-82
2021/01/13 05:15:32;;;;;;;32.10;29.00;;;2.60;99.90;;;;;;6226589;23;20759;-82
2021/01/13 05:18:02;;;;;;;29.27;25.93;;;2.60;99.90;;;;;;6215945;23;20396;-81
2021/01/13 05:20:30;;;;;;;37.00;28.53;;;2.70;99.90;;;;;;6226472;23;20426;-82
2021/01/13 05:23:03;;;;;;;29.43;26.40;;;2.70;99.90;;;;;;6216654;23;21093;-82
2021/01/13 05:25:44;;;;;;;32.70;29.20;;;2.70;99.90;;;;;;6216523;23;20742;-81
2021/01/13 05:28:17;;;;;;;41.47;31.17;;;2.60;99.90;;;;;;6217096;23;20470;-82
2021/01/13 05:30:45;;;;;;;47.57;28.57;;;2.70;99.90;;;;;;6226777;23;20433;-82
2021/01/13 05:33:15;;;;;;;36.10;29.03;;;2.70;99.90;;;;;;6225046;23;20454;-82
2021/01/13 05:35:45;;;;;;;34.90;31.30;;;2.60;99.90;;;;;;6226807;23;20408;-82
2021/01/13 05:38:41;;;;;;;30.70;25.83;;;2.60;99.90;;;;;;6217376;23;20899;-82
2021/01/13 05:41:19;;;;;;;32.83;26.37;;;2.70;99.90;;;;;;6203275;23;20458;-81
2021/01/13 05:43:51;;;;;;;34.03;27.40;;;2.70;99.90;;;;;;6216169;23;20396;-82
2021/01/13 05:46:21;;;;;;;28.03;23.87;;;2.70;99.90;;;;;;6214341;23;20412;-81
2021/01/13 05:49:07;;;;;;;;;;;;;;;;;;;;;
2021/01/13 05:51:36;;;;;;;35.40;22.03;;;2.80;99.90;;;;;;6216041;23;20404;-84
2021/01/13 05:54:12;;;;;;;38.13;21.63;;;2.80;99.90;;;;;;6215801;23;20439;-83
2021/01/13 05:56:40;;;;;;;26.30;21.37;;;2.80;99.90;;;;;;6216366;23;20436;-78
2021/01/13 05:59:09;;;;;;;20.90;18.73;;;2.90;99.90;;;;;;6216666;23;20407;-82
2021/01/13 06:01:46;;;;;;;23.13;20.00;;;2.90;99.90;;;;;;6214805;23;20401;-81
2021/01/13 06:04:14;;;;;;;27.83;20.50;;;2.90;99.90;;;;;;6226557;23;20426;-81
2021/01/13 06:06:55;;;;;;;33.10;22.67;;;2.90;99.90;;;;;;6226528;23;20435;-81
2021/01/13 06:09:44;;;;;;;22.37;18.93;;;2.90;99.90;;;;;;6216189;23;20405;-81
2021/01/13 06:12:16;;;;;;;33.67;25.43;;;2.70;99.90;;;;;;6216134;23;20877;-81
2021/01/13 06:14:48;;;;;;;28.50;21.83;;;2.70;99.90;;;;;;6216129;23;20955;-84
2021/01/13 06:17:18;;;;;;;32.30;26.70;;;2.60;99.90;;;;;;6225246;23;20715;-81
2021/01/13 06:19:52;;;;;;;34.17;30.70;;;2.50;99.90;;;;;;6226048;23;20411;-82
2021/01/13 06:22:23;;;;;;;36.10;32.67;;;2.40;99.90;;;;;;6216052;23;20405;-80
2021/01/13 06:24:50;;;;;;;39.20;31.87;;;2.40;99.90;;;;;;6216229;23;20389;-81
2021/01/13 06:27:18;;;;;;;42.93;33.30;;;2.40;99.90;;;;;;6216509;23;20432;-82
2021/01/13 06:29:49;;;;;;;39.50;34.77;;;2.30;99.90;;;;;;6215863;23;20939;-81
2021/01/13 06:32:28;;;;;;;40.07;36.17;;;2.30;99.90;;;;;;6214912;23;20392;-82
2021/01/13 06:35:04;;;;;;;34.27;31.43;;;2.30;99.90;;;;;;6216242;23;20884;-82
2021/01/13 06:37:37;;;;;;;39.97;35.97;;;2.40;99.90;;;;;;6216290;23;20486;-82
2021/01/13 06:40:13;;;;;;;34.30;30.63;;;2.30;99.90;;;;;;6215629;23;20396;-81
2021/01/13 06:42:42;;;;;;;35.47;31.83;;;2.30;99.90;;;;;;6226348;23;20795;-82
2021/01/13 06:45:30;;;;;;;37.77;33.77;;;2.30;99.90;;;;;;6215891;23;20396;-81
2021/01/13 06:47:59;;;;;;;37.47;33.70;;;2.10;99.90;;;;;;6214631;23;20405;-81
2021/01/13 06:50:36;;;;;;;40.63;36.67;;;2.10;99.90;;;;;;6225855;23;20419;-81
2021/01/13 06:56:30;;;;;;;47.50;43.03;;;2.00;99.90;;;;;;6213913;23;20415;-83
2021/01/13 06:59:00;;;;;;;47.43;43.57;;;2.00;99.90;;;;;;6216063;23;20424;-82
2021/01/13 07:01:27;;;;;;;65.70;60.77;;;2.00;99.90;;;;;;6214625;23;20396;-81
2021/01/13 07:04:02;;;;;;;61.47;57.00;;;2.00;99.90;;;;;;6215543;23;20758;-83
2021/01/13 07:06:35;;;;;;;64.97;60.27;;;1.90;99.90;;;;;;6225775;23;20411;-83
2021/01/13 07:09:02;;;;;;;56.90;52.40;;;2.00;99.90;;;;;;6225706;23;20407;-82
2021/01/13 07:11:34;;;;;;;61.33;57.07;;;1.90;99.90;;;;;;6215427;23;20904;-83
2021/01/13 07:14:02;;;;;;;72.38;66.78;;;1.90;99.90;;;;;;6215621;23;20773;-82
2021/01/13 07:16:34;;;;;;;78.27;72.40;;;1.90;99.90;;;;;;6224117;23;20164;-83
2021/01/13 07:19:02;;;;;;;79.20;74.00;;;2.00;99.90;;;;;;6215940;23;20412;-80
2021/01/13 07:21:37;;;;;;;77.50;71.60;;;1.80;99.90;;;;;;6225166;23;20405;-80
2021/01/13 07:24:12;;;;;;;76.80;70.97;;;1.80;99.90;;;;;;6226011;23;20400;-81
2021/01/13 07:26:39;;;;;;;75.88;70.88;;;1.80;99.90;;;;;;6215871;23;20214;-79
2021/01/13 07:29:07;;;;;;;76.70;71.63;;;1.90;99.90;;;;;;6225454;23;20160;-81
2021/01/13 07:31:35;;;;;;;67.40;63.10;;;2.00;99.90;;;;;;6214387;23;20432;-80
2021/01/13 07:34:14;;;;;;;58.53;54.83;;;2.00;99.90;;;;;;6215808;23;20761;-80
2021/01/13 07:36:41;;;;;;;65.90;61.53;;;1.90;99.90;;;;;;6215948;23;20864;-80
2021/01/13 07:39:11;;;;;;;69.67;64.10;;;2.00;99.90;;;;;;6225754;23;20733;-80
2021/01/13 07:42:10;;;;;;;72.25;66.80;;;2.00;99.90;;;;;;6225932;23;20716;-80
2021/01/13 07:44:43;;;;;;;84.97;78.13;;;1.90;99.90;;;;;;6174900;23;20173;-80
2021/01/13 07:47:40;;;;;;;77.17;71.63;;;1.90;99.90;;;;;;6225782;23;20896;-80
2021/01/13 07:50:08;;;;;;;78.27;73.97;;;1.80;99.90;;;;;;6225687;23;20784;-80
2021/01/13 07:52:43;;;;;;;82.60;77.40;;;1.80;99.90;;;;;;6215717;23;20439;-80
2021/01/13 07:55:16;;;;;;;86.40;80.90;;;1.90;99.90;;;;;;6215226;23;20538;-80
2021/01/13 07:57:50;;;;;;;85.87;80.10;;;1.90;99.90;;;;;;6215383;23;20420;-79
2021/01/13 08:00:36;;;;;;;92.60;86.73;;;1.90;99.90;;;;;;6225679;23;20715;-79
2021/01/13 08:03:52;;;;;;;85.60;80.60;;;1.90;99.90;;;;;;6213405;23;20415;-80
2021/01/13 08:06:30;;;;;;;87.43;80.57;;;2.00;99.90;;;;;;6225508;23;20491;-78
2021/01/13 08:09:15;;;;;;;78.03;73.43;;;2.00;99.90;;;;;;6215393;23;20971;-80
2021/01/13 08:12:34;;;;;;;81.73;75.97;;;2.00;99.90;;;;;;6215678;23;20400;-80
2021/01/13 08:15:43;;;;;;;94.97;88.10;;;2.00;99.90;;;;;;6225326;23;20435;-80
2021/01/13 08:18:57;;;;;;;86.70;79.67;;;2.00;99.90;;;;;;6214112;23;20407;-80
2021/01/13 08:21:26;;;;;;;82.83;76.93;;;2.00;99.90;;;;;;6215373;23;20419;-80
2021/01/13 08:23:59;;;;;;;73.33;68.50;;;2.20;99.90;;;;;;6215606;23;20401;-80
2021/01/13 08:26:26;;;;;;;80.17;73.43;;;2.20;99.90;;;;;;6225026;23;20405;-80
2021/01/13 08:28:56;;;;;;;75.90;69.80;;;2.20;99.90;;;;;;6211024;23;20412;-80
2021/01/13 08:31:31;;;;;;;68.07;63.63;;;2.20;99.90;;;;;;6211527;23;20403;-79
2021/01/13 08:34:09;;;;;;;73.97;67.90;;;2.30;99.90;;;;;;6213006;23;20436;-80
2021/01/13 08:36:39;;;;;;;69.20;64.10;;;2.20;99.90;;;;;;6213424;23;20404;-84
2021/01/13 08:39:12;;;;;;;71.27;66.50;;;2.30;99.90;;;;;;6213224;23;20404;-80
2021/01/13 08:41:40;;;;;;;64.30;60.10;;;2.30;99.90;;;;;;6223865;23;20416;-79
2021/01/13 08:44:10;;;;;;;60.93;56.33;;;2.30;99.90;;;;;;6215484;23;20400;-80
2021/01/13 08:47:01;;;;;;;58.83;54.13;;;2.30;99.90;;;;;;6214157;23;20832;-80
2021/01/13 08:49:29;;;;;;;59.57;55.07;;;2.40;99.90;;;;;;6215401;23;20407;-80
2021/01/13 08:52:19;;;;;;;54.53;50.47;;;2.30;99.90;;;;;;6215524;23;20424;-81
2021/01/13 08:55:06;;;;;;;55.37;51.30;;;2.40;99.90;;;;;;6225210;23;20625;-81
2021/01/13 08:57:59;;;;;;;60.03;53.80;;;2.50;99.90;;;;;;6228078;23;20416;-82
2021/01/13 09:00:27;;;;;;;48.93;45.23;;;2.60;99.90;;;;;;6215416;23;20835;-80
2021/01/13 09:03:11;;;;;;;43.50;39.00;;;2.70;99.90;;;;;;6213810;23;20404;-81
2021/01/13 09:05:39;;;;;;;38.30;32.07;;;2.80;99.90;;;;;;6215133;23;20771;-80
2021/01/13 09:08:08;;;;;;;56.47;29.67;;;3.00;99.90;;;;;;6224860;23;20408;-80
2021/01/13 09:10:52;;;;;;;26.27;23.60;;;3.10;99.90;;;;;;6226588;23;20466;-81
2021/01/13 09:13:31;;;;;;;25.93;20.23;;;3.10;99.90;;;;;;6217153;23;20439;-80
2021/01/13 09:16:18;;;;;;;22.17;19.83;;;3.20;99.90;;;;;;6227205;23;20466;-81
2021/01/13 09:18:53;;;;;;;23.00;20.33;;;3.30;99.90;;;;;;6216677;23;20848;-81
2021/01/13 09:21:21;;;;;;;24.27;19.07;;;3.20;99.90;;;;;;6217192;23;20396;-81
2021/01/13 09:23:56;;;;;;;29.90;18.10;;;3.20;99.90;;;;;;6227181;23;20415;-81
2021/01/13 09:26:29;;;;;;;24.03;18.07;;;3.30;99.90;;;;;;6217128;23;20482;-81
2021/01/13 09:29:02;;;;;;;19.43;15.70;;;3.30;99.90;;;;;;6217093;23;20397;-81
2021/01/13 09:31:29;;;;;;;28.67;16.20;;;3.40;99.90;;;;;;6215480;23;20399;-83
2021/01/13 09:33:57;;;;;;;24.97;17.43;;;3.50;99.90;;;;;;6216926;23;20433;-83
2021/01/13 09:36:24;;;;;;;18.53;16.40;;;3.50;99.90;;;;;;6217063;23;20400;-83
2021/01/13 09:39:08;;;;;;;28.60;17.63;;;3.70;99.90;;;;;;6216670;23;20978;-83
2021/01/13 09:41:39;;;;;;;36.03;16.83;;;3.80;99.90;;;;;;6211685;23;20416;-83
2021/01/13 09:44:13;;;;;;;21.33;16.07;;;3.80;99.90;;;;;;6227091;23;20436;-83
2021/01/13 09:46:40;;;;;;;22.13;16.93;;;3.80;99.90;;;;;;6215120;23;20405;-83
2021/01/13 09:49:10;;;;;;;32.80;17.77;;;3.90;99.90;;;;;;6216983;23;20459;-82
2021/01/13 09:51:37;;;;;;;26.07;14.53;;;4.00;99.90;;;;;;6226615;23;20745;-82
2021/01/13 09:54:06;;;;;;;24.27;14.67;;;3.90;99.90;;;;;;6214057;23;21054;-82
2021/01/13 09:56:34;;;;;;;20.23;14.60;;;3.90;99.90;;;;;;6213363;23;20416;-82
2021/01/13 09:59:04;;;;;;;27.33;16.23;;;3.90;99.90;;;;;;6215037;23;20459;-83
2021/01/13 10:01:32;;;;;;;19.40;12.17;;;4.10;99.90;;;;;;6223357;23;20745;-82
2021/01/13 10:04:01;;;;;;;14.70;10.93;;;4.00;99.90;;;;;;6214816;23;20436;-83
2021/01/13 10:06:29;;;;;;;23.73;14.00;;;4.00;99.90;;;;;;6215291;23;20423;-82
2021/01/13 10:08:57;;;;;;;29.43;16.37;;;4.10;99.90;;;;;;6226411;23;20470;-83
2021/01/13 10:11:30;;;;;;;26.00;15.10;;;4.10;99.90;;;;;;6216329;23;20707;-85
2021/01/13 10:13:59;;;;;;;21.83;11.47;;;4.10;99.90;;;;;;6216357;23;20459;-82
2021/01/13 10:16:28;;;;;;;17.47;12.97;;;4.20;99.90;;;;;;6224710;23;20422;-82
2021/01/13 10:18:58;;;;;;;25.60;15.00;;;4.30;99.90;;;;;;6216102;23;20889;-82
2021/01/13 10:21:37;;;;;;;20.97;11.93;;;4.20;99.90;;;;;;6216221;23;20400;-82
2021/01/13 10:24:11;;;;;;;21.83;12.73;;;4.10;99.90;;;;;;6216550;23;20711;-82
2021/01/13 10:26:59;;;;;;;25.90;14.70;;;4.10;99.90;;;;;;6215674;23;20779;-81
2021/01/13 10:35:27;;;;;;;;;;;;;;;;;;;;;
2021/01/13 10:38:10;;;;;;;26.77;17.40;;;4.10;99.90;;;;;;6153024;23;20933;-83
2021/01/13 10:40:39;;;;;;;41.30;14.43;;;4.00;99.90;;;;;;6163341;23;20902;-83
2021/01/13 10:43:12;;;;;;;30.97;16.20;;;4.20;99.90;;;;;;6156803;23;20413;-83
2021/01/13 10:45:44;;;;;;;23.73;15.20;;;4.30;99.90;;;;;;6226306;23;20891;-83
2021/01/13 10:58:29;;;;;;;24.67;14.33;;;4.50;99.90;;;;;;5989917;23;20428;-84
2021/01/13 11:01:42;;;;;;;34.30;12.57;;;4.60;99.90;;;;;;5938457;24;20416;-82
2021/01/13 11:19:20;;;;;;;;;;;;;;;;;;;;;
2021/01/13 11:25:34;;;;;;;;;;;;;;;;;;;;;
2021/01/13 11:31:45;;;;;;;23.57;11.43;;;5.00;92.50;;;;;;5978753;23;20441;-82
2021/01/13 12:33:57;;;;;;;16.40;9.33;;;5.70;54.20;;;;;;4877657;29;20249;-82
2021/01/13 12:37:07;;;;;;;16.77;7.40;;;5.70;56.80;;;;;;4908433;29;20205;-83
2021/01/13 12:54:54;;;;;;;;;;;;;;;;;;;;;
2021/01/13 15:06:01;;;;;;;21.70;8.83;;;3.90;71.50;;;;;;4615586;26;20990;-83
2021/01/13 15:12:18;;;;;;;20.40;8.73;;;4.00;71.00;;;;;;4875904;29;21034;-83
2021/01/13 15:15:17;;;;;;;;;;;;;;;;;;;;;
2021/01/13 15:18:02;;;;;;;21.67;8.73;;;4.00;66.90;;;;;;4907800;28;20505;-82
2021/01/13 15:21:17;;;;;;;18.33;7.70;;;4.10;67.10;;;;;;4992723;28;20454;-82
2021/01/13 15:24:17;;;;;;;18.80;8.37;;;4.10;65.00;;;;;;4886570;29;20591;-82
2021/01/13 15:30:23;;;;;;;;;;;;;;;;;;;;;
2021/01/13 15:33:04;;;;;;;;;;;;;;;;;;;;;
2021/01/13 15:45:39;;;;;;;17.30;8.97;;;3.80;64.80;;;;;;4737644;29;21249;-82
2021/01/13 15:48:13;;;;;;;15.80;7.60;;;3.80;64.80;;;;;;4821005;29;20462;-81
2021/01/13 15:54:34;;;;;;;16.27;7.67;;;3.80;64.80;;;;;;4772622;29;21119;-81
2021/01/13 15:57:52;;;;;;;;;;;;;;;;;;;;;
2021/01/13 16:04:28;;;;;;;33.60;9.03;;;3.80;62.40;;;;;;4883322;29;20529;-82
2021/01/13 16:07:49;;;;;;;;;;;;;;;;;;;;;
2021/01/13 16:28:14;;;;;;;22.53;10.03;;;3.70;72.60;;;;;;4764064;29;20553;-80
2021/01/13 16:34:40;;;;;;;16.60;9.43;;;3.60;76.60;;;;;;4817393;29;20465;-82
2021/01/13 17:17:01;;;;;;;;;;;;;;;;;;;;;
2021/01/13 17:20:14;;;;;;;;;;;;;;;;;;;;;
2021/01/13 17:23:04;;;;;;;;;;;;;;;;;;;;;
2021/01/13 17:28:56;;;;;;;24.03;12.60;;;3.70;87.80;;;;;;4782506;29;20550;-77
2021/01/13 17:51:36;;;;;;;20.33;11.40;;;3.70;92.30;;;;;;4789759;29;20459;-82
2021/01/13 17:54:25;;;;;;;15.87;9.50;;;3.80;92.40;;;;;;4751853;30;20470;-83
2021/01/13 17:56:56;;;;;;;18.60;11.90;;;3.80;92.70;;;;;;4730459;30;20491;-82
2021/01/13 17:59:48;;;;;;;;;;;;;;;;;;;;;
2021/01/13 18:02:42;;;;;;;28.80;12.17;;;3.70;93.40;;;;;;4742653;30;20465;-82
2021/01/13 18:18:53;;;;;;;21.00;13.30;;;3.60;95.60;;;;;;4743897;30;20457;-82
2021/01/13 18:28:30;;;;;;;30.73;14.47;;;3.60;99.50;;;;;;4935576;28;20502;-82
2021/01/13 18:31:09;;;;;;;21.67;14.17;;;3.60;98.50;;;;;;4948747;28;20444;-82
2021/01/13 18:37:24;;;;;;;;;;;;;;;;;;;;;
2021/01/13 18:40:13;;;;;;;31.83;13.57;;;3.60;97.90;;;;;;4861749;29;20973;-82
2021/01/13 18:43:23;;;;;;;;;;;;;;;;;;;;;
2021/01/13 18:52:47;;;;;;;28.43;14.10;;;3.70;97.00;;;;;;4843893;29;20524;-82
2021/01/13 18:55:39;;;;;;;21.80;13.27;;;3.70;97.30;;;;;;4955914;28;20476;-82
2021/01/13 19:01:50;;;;;;;;;;;;;;;;;;;;;
2021/01/13 19:04:26;;;;;;;30.00;15.40;;;3.70;97.60;;;;;;4909220;28;20483;-81
2021/01/13 19:07:18;;;;;;;26.63;12.07;;;3.80;95.90;;;;;;4962305;28;20466;-81
2021/01/13 19:16:14;;;;;;;;;;;;;;;;;;;;;
2021/01/13 19:19:04;;;;;;;27.57;15.10;;;3.60;99.90;;;;;;4966653;28;20478;-82
2021/01/13 19:22:01;;;;;;;23.10;11.90;;;3.50;99.90;;;;;;4973603;28;20458;-81
2021/01/13 19:28:08;;;;;;;33.63;14.17;;;3.50;99.90;;;;;;4787112;29;20473;-81
2021/01/13 19:37:28;;;;;;;30.30;15.00;;;3.60;99.90;;;;;;4893211;29;20714;-82
2021/01/13 19:40:23;;;;;;;22.57;13.67;;;3.60;99.90;;;;;;4896074;29;20498;-82
2021/01/13 19:49:14;;;;;;;;;;;;;;;;;;;;;
2021/01/13 19:52:38;;;;;;;;;;;;;;;;;;;;;
2021/01/13 19:55:30;;;;;;;20.23;15.27;;;3.60;98.80;;;;;;4838321;29;20461;-82
2021/01/13 19:58:23;;;;;;;21.83;14.57;;;3.60;99.20;;;;;;4839502;29;20486;-82
2021/01/13 20:13:40;;;;;;;;;;;;;;;;;;;;;
2021/01/13 20:19:38;;;;;;;22.80;13.97;;;3.50;99.50;;;;;;4768509;29;20520;-82
2021/01/13 20:22:27;;;;;;;30.90;16.83;;;3.60;99.90;;;;;;4810098;29;20467;-82
2021/01/13 20:25:18;;;;;;;;;;;;;;;;;;;;;
2021/01/13 20:28:26;;;;;;;28.03;14.73;;;3.60;99.90;;;;;;4823627;29;20947;-82
2021/01/13 20:31:17;;;;;;;;;;;;;;;;;;;;;
2021/01/13 20:34:03;;;;;;;20.43;13.00;;;3.60;98.40;;;;;;4876450;29;20436;-82
2021/01/13 20:39:59;;;;;;;22.70;13.33;;;3.60;96.70;;;;;;4917138;29;21153;-82
2021/01/13 20:46:13;;;;;;;23.57;13.17;;;3.70;95.70;;;;;;4958316;28;20554;-81
2021/01/13 20:48:58;;;;;;;23.40;13.20;;;3.80;95.00;;;;;;4933028;29;20547;-83
2021/01/13 20:52:01;;;;;;;18.63;12.63;;;3.70;95.60;;;;;;4893628;28;20463;-82
2021/01/13 20:54:50;;;;;;;33.17;14.73;;;3.70;94.00;;;;;;4957970;28;20452;-82
2021/01/13 20:57:22;;;;;;;16.73;11.10;;;3.70;94.40;;;;;;4943455;28;20535;-82
2021/01/13 21:09:23;;;;;;;19.93;14.23;;;3.70;95.60;;;;;;4840974;29;20449;-82
2021/01/13 23:21:55;;;;;;;;;;;;;;;;;;;;;
2021/01/13 23:31:59;;;;;;;;;;;;;;;;;;;;;
